Ana Sayfa
METAR-TAF:

METAR-TAF

Havaalanları :

Hobart, Oklahoma, Amerika Birleşik Devletleri

Enlem: 34-59-22N, Boylam: 099-03-09W, yükseklik: 476 m

Güncel hava durumu gözlemi

Rapor saat 22:53 UTC de 58 dakika önce yapıldı.
Rüzgar kuzeydan 14 kt
Sıcaklık 22°C
Nem 65%
Basınç 1012 hPa
Görüş mesafesi: 16.1 km
2600 ft yükseklikte parçalı bulutlu
3200 ft yükseklikte parçalı çok bulutlu

METAR: KHBR 252253Z AUTO 35014KT 10SM SCT026 BKN032 22/15 A2987 RMK AO2 SLP104 T02170150 $

Saat: 18:51 (23:51 UTC)


TAF: eksik

4.000'den fazla havaalanı için hava durumu gözlemleri ve tahminleri (METAR ve TAF raporları).

Kullanılabilir istasyonlar harita üzerinde sarı ve kırmızı noktalarla gösterilir.

İstasyonun adını görmek için fareyi noktanın üzerinde gezdirin.

Sonrasında hava gözlem ve tahminlerini görmek için tıklayın.

Haritayı değiştirmek için: yaklaştırmak için siyah artı işaretli yeşil düğmeye ve uzaklaştırmak için de eksi işaretli düğmeye hızla tıklayın; bitişik haritalar için yeşil okları kullanın.


METAR-TAF: